Cfl Promise — PBOH — position and weather

sailwx.info

Track history (hours):
 
Tides and Currents Weather Stations Pressure Air Temp Water Temp Dewpoint Dewpoint Depression Visibility Wind Speed Wind Dir Waves Ship Positions

Cfl Promise

Last reported at 2017-Dec-17 11:08 UTC. Time now 2017-Dec-18 11:20 UTC.
Position N 55°40' E 016°20'.

Length 119 m; draft 6.2 m.

Type: Cargo ship. MMSI: 245959000.

Date/timePositionNaut miles runAvg speedWind from/ knotsBaromVisibWave heightAir tempDewpointWater temp
2017-Dec-17 11:08N 55°40' E 016°20'110.7
2017-Dec-17 11:00N 55°40' E 016°17'510.5
2017-Dec-17 10:30N 55°38' E 016°09'610.4
2017-Dec-17 09:58N 55°37' E 015°59'510.3
2017-Dec-17 09:30N 55°36' E 015°51'510.3
2017-Dec-17 09:00N 55°34' E 015°42'610.4
2017-Dec-17 08:25N 55°33' E 015°32'510.3
2017-Dec-17 07:55N 55°31' E 015°23'410.2
2017-Dec-17 07:30N 55°29' E 015°16'510.2
2017-Dec-17 07:01N 55°28' E 015°08'510.2
2017-Dec-17 06:30N 55°26' E 014°59'510.1
2017-Dec-17 06:01N 55°24' E 014°51'510.1
2017-Dec-17 05:31N 55°23' E 014°42'5 9.6
2017-Dec-17 05:01N 55°20' E 014°35'5 9.7
2017-Dec-17 04:31N 55°17' E 014°29'5 9.6
2017-Dec-17 04:00N 55°13' E 014°24'5 9.6
2017-Dec-17 03:29N 55°11' E 014°16'610.3
2017-Dec-17 02:58N 55°09' E 014°07'510.6
2017-Dec-17 02:29N 55°09' E 013°58'2010.7
2017-Dec-17 00:36N 55°12' E 013°24'211.0
2017-Dec-17 00:24N 55°13' E 013°20'410.7
2017-Dec-17 00:00N 55°13' E 013°13'510.6
2017-Dec-16 23:30N 55°14' E 013°03'510.5
2017-Dec-16 23:00N 55°15' E 012°54'510.7
2017-Dec-16 22:30N 55°16' E 012°45'510.1
2017-Dec-16 22:00N 55°19' E 012°38'510.1
2017-Dec-16 21:30N 55°24' E 012°39'510.1
2017-Dec-16 21:00N 55°29' E 012°41'5 9.5
2017-Dec-16 20:30N 55°34' E 012°42'4 8.9
2017-Dec-16 20:00N 55°38' E 012°42'5 9.3
2017-Dec-16 19:30N 55°43' E 012°41'5 9.6
2017-Dec-16 19:00N 55°47' E 012°42'5 9.5
2017-Dec-16 18:30N 55°52' E 012°40'5 9.5
2017-Dec-16 18:00N 55°57' E 012°38'5 9.6
2017-Dec-16 17:30N 56°01' E 012°38'4 8.0
2017-Dec-16 17:00N 56°05' E 012°35'4 8.9
2017-Dec-16 16:30N 56°08' E 012°29'510.5
2017-Dec-16 16:00N 56°11' E 012°21'510.1
2017-Dec-16 15:30N 56°14' E 012°13'5210.1
2017-Dec-16 10:23N 57°02' E 011°41'410.2
2017-Dec-16 10:00N 57°06' E 011°38'510.2
2017-Dec-16 09:30N 57°11' E 011°35'510.3
2017-Dec-16 09:00N 57°16' E 011°32'510.4
2017-Dec-16 08:30N 57°21' E 011°29'510.3
2017-Dec-16 08:00N 57°26' E 011°26'5 9.9
2017-Dec-16 07:30N 57°29' E 011°20'510.3
2017-Dec-16 07:00N 57°33' E 011°13'510.3
2017-Dec-16 06:30N 57°36' E 011°05'510.3
2017-Dec-16 06:00N 57°39' E 010°57'510.3
2017-Dec-16 05:30N 57°41' E 010°48'510.2
2017-Dec-16 05:00N 57°42' E 010°39'1 1.7
2017-Dec-16 04:22N 57°42' E 010°37'0 0.0
2017-Dec-16 03:58N 57°42' E 010°37'0 0.0
2017-Dec-16 03:28N 57°42' E 010°37'0 0.0
2017-Dec-16 02:58N 57°42' E 010°37'0 0.0
2017-Dec-16 02:28N 57°42' E 010°37'0 0.0
2017-Dec-16 01:58N 57°42' E 010°37'0 0.0
2017-Dec-16 01:28N 57°42' E 010°37'0 0.1
2017-Dec-16 00:58N 57°42' E 010°37'0 0.1
2017-Dec-16 00:28N 57°42' E 010°37'0 0.1
2017-Dec-15 23:58N 57°42' E 010°37'0 0.1
2017-Dec-15 23:28N 57°42' E 010°37'0 0.0
2017-Dec-15 22:58N 57°42' E 010°37'1 2.6
2017-Dec-15 22:30N 57°43' E 010°39'4 8.6
2017-Dec-15 22:00N 57°46' E 010°45'510.0
2017-Dec-15 21:30N 57°47' E 010°36'611.3
2017-Dec-15 21:00N 57°47' E 010°25'9210.3
2017-Dec-15 12:09N 57°42' E 007°34'1 9.4
2017-Dec-15 12:00N 57°42' E 007°31'510.2
2017-Dec-15 11:30N 57°42' E 007°22'510.6
2017-Dec-15 10:59N 57°42' E 007°12'510.4
2017-Dec-15 10:30N 57°43' E 007°02'510.0
2017-Dec-15 10:00N 57°43' E 006°53'5 9.6
2017-Dec-15 09:30N 57°44' E 006°44'5 9.3
2017-Dec-15 09:00N 57°44' E 006°35'5 9.3
2017-Dec-15 08:30N 57°48' E 006°29'5 9.2
2017-Dec-15 08:00N 57°50' E 006°22'5 9.6
2017-Dec-15 07:30N 57°53' E 006°14'510.1
2017-Dec-15 07:00N 57°56' E 006°07'510.2
2017-Dec-15 06:29N 57°59' E 005°59'2310.4
2017-Dec-15 04:14N 58°14' E 005°26'17 9.7
2017-Dec-15 02:30N 58°28' E 005°08'14 9.4
2017-Dec-15 01:00N 58°42' E 004°58'5 9.8
2017-Dec-15 00:30N 58°46' E 004°55'87 9.1
2017-Dec-14 14:55N 60°13' E 004°29'4 8.9
2017-Dec-14 14:30N 60°16' E 004°29'4 8.9
2017-Dec-14 14:00N 60°21' E 004°30'4 8.3
2017-Dec-14 13:30N 60°25' E 004°32'4 8.4
2017-Dec-14 13:00N 60°29' E 004°32'4 8.5
2017-Dec-14 12:30N 60°33' E 004°33'4 8.4
2017-Dec-14 12:00N 60°37' E 004°34'4 8.5
2017-Dec-14 11:30N 60°41' E 004°36'4 8.1
2017-Dec-14 10:59N 60°45' E 004°41'3 6.0
2017-Dec-14 10:30N 60°47' E 004°45'4 8.5
2017-Dec-14 10:00N 60°51' E 004°49'611.3
2017-Dec-14 09:30N 60°50' E 005°00'2 3.9
2017-Dec-14 08:58N 60°51' E 005°04'0 0.0
2017-Dec-14 08:28N 60°51' E 005°04'0 0.0
2017-Dec-14 07:58N 60°51' E 005°04'0 0.0
2017-Dec-14 07:28N 60°51' E 005°04'0 0.0
2017-Dec-14 06:58N 60°51' E 005°04'0 0.0
2017-Dec-14 06:28N 60°51' E 005°04'0 0.0
2017-Dec-14 05:58N 60°51' E 005°04'0 0.0
2017-Dec-14 05:28N 60°51' E 005°04'0 0.0
2017-Dec-14 04:58N 60°51' E 005°04'0 0.0
2017-Dec-14 04:28N 60°51' E 005°04'0 0.0
2017-Dec-14 03:58N 60°51' E 005°04'0 0.0
2017-Dec-14 03:28N 60°51' E 005°04'0 0.0
2017-Dec-14 02:58N 60°51' E 005°04'0 0.0
2017-Dec-14 02:28N 60°51' E 005°04'0 0.0
2017-Dec-14 01:58N 60°51' E 005°04'0 0.0
2017-Dec-14 01:28N 60°51' E 005°04'0 0.0
2017-Dec-14 00:58N 60°51' E 005°04'0 0.0
2017-Dec-14 00:28N 60°51' E 005°04'0 0.0
2017-Dec-13 23:58N 60°51' E 005°04'0 0.0
2017-Dec-13 23:28N 60°51' E 005°04'0 0.0
2017-Dec-13 22:58N 60°51' E 005°04'0 0.0
2017-Dec-13 22:28N 60°51' E 005°04'0 0.0
2017-Dec-13 21:58N 60°51' E 005°04'0 0.0
2017-Dec-13 21:28N 60°51' E 005°04'0 0.0
2017-Dec-13 20:58N 60°51' E 005°04'0 0.0
2017-Dec-13 20:28N 60°51' E 005°04'0 0.0
2017-Dec-13 19:58N 60°51' E 005°04'0 0.0
2017-Dec-13 19:28N 60°51' E 005°04'0 0.0
2017-Dec-13 18:58N 60°51' E 005°04'0 0.0
2017-Dec-13 18:28N 60°51' E 005°04'0 0.0
2017-Dec-13 17:58N 60°51' E 005°04'0 0.0
2017-Dec-13 17:28N 60°51' E 005°04'0 0.0
2017-Dec-13 16:58N 60°51' E 005°04'0 0.0
2017-Dec-13 16:28N 60°51' E 005°04'0 0.0
2017-Dec-13 15:58N 60°51' E 005°04'0 0.0
2017-Dec-13 15:28N 60°51' E 005°04'0 0.0
2017-Dec-13 14:58N 60°51' E 005°04'0 0.1
2017-Dec-13 14:28N 60°51' E 005°04'0 0.0
2017-Dec-13 13:58N 60°51' E 005°04'0 0.0
2017-Dec-13 13:28N 60°51' E 005°04'0 0.0
2017-Dec-13 12:58N 60°51' E 005°04'0 0.0
2017-Dec-13 12:28N 60°51' E 005°04'0 0.0
2017-Dec-13 11:58N 60°51' E 005°04'0 0.0
2017-Dec-13 11:28N 60°51' E 005°04'0 0.3
2017-Dec-13 11:00N 60°51' E 005°04'4 7.8
2017-Dec-13 10:30N 60°50' E 004°56'510.5
2017-Dec-13 10:00N 60°50' E 004°45'611.8
2017-Dec-13 09:30N 60°44' E 004°48'612.8
2017-Dec-13 09:00N 60°38' E 004°52'713.1
2017-Dec-13 08:30N 60°32' E 004°57'612.8
2017-Dec-13 08:00N 60°26' E 005°02'611.4
2017-Dec-13 07:30N 60°22' E 005°10'510.8
2017-Dec-13 07:00N 60°17' E 005°11'611.1
2017-Dec-13 06:30N 60°11' E 005°12'5 9.5
2017-Dec-13 06:00N 60°08' E 005°18'612.2
2017-Dec-13 05:30N 60°02' E 005°20'612.1
2017-Dec-13 05:00N 59°57' E 005°27'612.3
2017-Dec-13 04:30N 59°51' E 005°33'3 6.1
2017-Dec-13 04:00N 59°51' E 005°39'612.3
2017-Dec-13 03:30N 59°56' E 005°46'612.3
2017-Dec-13 03:00N 60°00' E 005°54'612.1
2017-Dec-13 02:30N 60°05' E 006°02'611.2
2017-Dec-13 01:59N 60°11' E 006°04'611.7
2017-Dec-13 01:30N 60°15' E 006°11'612.1
2017-Dec-13 01:00N 60°21' E 006°17'612.2
2017-Dec-13 00:30N 60°24' E 006°27'611.3
2017-Dec-13 00:00N 60°26' E 006°38'510.1
2017-Dec-12 23:30N 60°21' E 006°39'611.6
2017-Dec-12 23:00N 60°15' E 006°36'611.6
2017-Dec-12 22:31N 60°10' E 006°34'5 9.7
2017-Dec-12 22:00N 60°05' E 006°32'0 0.3
2017-Dec-12 21:29N 60°05' E 006°32'0 0.0
2017-Dec-12 20:59N 60°05' E 006°32'0 0.0
2017-Dec-12 20:29N 60°05' E 006°32'0 0.0
2017-Dec-12 19:59N 60°05' E 006°32'0 0.0
2017-Dec-12 19:29N 60°05' E 006°32'0 0.0
2017-Dec-12 18:59N 60°05' E 006°32'0 0.0
2017-Dec-12 18:29N 60°05' E 006°32'0 0.0
2017-Dec-12 17:59N 60°05' E 006°32'0 0.0
2017-Dec-12 17:29N 60°05' E 006°32'0 0.0
2017-Dec-12 16:59N 60°05' E 006°32'0 0.0
2017-Dec-12 16:29N 60°05' E 006°32'0 0.0
2017-Dec-12 15:59N 60°05' E 006°32'0 0.1
2017-Dec-12 15:29N 60°05' E 006°32'0 0.1
2017-Dec-12 14:59N 60°05' E 006°32'0 0.0
2017-Dec-12 14:29N 60°05' E 006°32'0 0.0
2017-Dec-12 13:58N 60°05' E 006°32'0 0.0
2017-Dec-12 13:28N 60°05' E 006°32'0 0.0
2017-Dec-12 12:58N 60°05' E 006°32'0 0.0
2017-Dec-12 12:28N 60°05' E 006°32'0 0.0
2017-Dec-12 11:58N 60°05' E 006°32'0 0.0
2017-Dec-12 11:28N 60°05' E 006°32'0 0.0
2017-Dec-12 10:58N 60°05' E 006°32'0 0.0
2017-Dec-12 10:28N 60°05' E 006°32'0 0.0
2017-Dec-12 09:58N 60°05' E 006°32'0 0.0
2017-Dec-12 09:28N 60°05' E 006°32'0 0.0
2017-Dec-12 08:58N 60°05' E 006°32'0 0.0
2017-Dec-12 08:28N 60°05' E 006°32'0 0.0
2017-Dec-12 07:58N 60°05' E 006°32'0 0.0
2017-Dec-12 07:28N 60°05' E 006°32'0 0.0
2017-Dec-12 06:58N 60°05' E 006°32'0 0.0
2017-Dec-12 06:28N 60°05' E 006°32'0 0.0
2017-Dec-12 05:58N 60°05' E 006°32'0 0.0
2017-Dec-12 05:28N 60°05' E 006°32'0 0.0
2017-Dec-12 04:58N 60°05' E 006°32'0 0.0
2017-Dec-12 04:28N 60°05' E 006°32'0 0.0
2017-Dec-12 03:58N 60°05' E 006°32'0 0.0
2017-Dec-12 03:28N 60°05' E 006°32'0 0.0
2017-Dec-12 02:58N 60°05' E 006°32'0 0.0
2017-Dec-12 02:28N 60°05' E 006°32'0 0.0
2017-Dec-12 01:58N 60°05' E 006°32'0 0.0
2017-Dec-12 01:28N 60°05' E 006°32'0 0.0
2017-Dec-12 00:58N 60°05' E 006°32'0 0.0
2017-Dec-12 00:28N 60°05' E 006°32'0 0.0
2017-Dec-11 23:58N 60°05' E 006°32'0 0.0
2017-Dec-11 23:28N 60°05' E 006°32'0 0.0
2017-Dec-11 22:58N 60°05' E 006°32'0 0.0
2017-Dec-11 22:28N 60°05' E 006°32'0 0.0
2017-Dec-11 21:58N 60°05' E 006°32'0 0.0
2017-Dec-11 21:28N 60°05' E 006°32'0 0.0
2017-Dec-11 20:58N 60°05' E 006°32'0 0.0
2017-Dec-11 20:28N 60°05' E 006°32'0 0.0
2017-Dec-11 19:58N 60°05' E 006°32'0 0.0
2017-Dec-11 19:28N 60°05' E 006°32'0 0.0
2017-Dec-11 18:58N 60°05' E 006°32'0 0.0
2017-Dec-11 18:28N 60°05' E 006°32'0 0.0
2017-Dec-11 17:58N 60°05' E 006°32'0 0.0
2017-Dec-11 17:28N 60°05' E 006°32'0 0.0
2017-Dec-11 16:58N 60°05' E 006°32'0 0.0
2017-Dec-11 16:28N 60°05' E 006°32'0 0.0
2017-Dec-11 15:58N 60°05' E 006°32'0 0.0
2017-Dec-11 15:28N 60°05' E 006°32'0 0.2
2017-Dec-11 14:58N 60°05' E 006°32'0 0.0
2017-Dec-11 14:28N 60°05' E 006°32'0 0.0
2017-Dec-11 13:58N 60°05' E 006°32'0 0.0
2017-Dec-11 13:28N 60°05' E 006°32'0 0.0
2017-Dec-11 12:58N 60°05' E 006°32'0 0.0
2017-Dec-11 12:28N 60°05' E 006°32'0 0.0
2017-Dec-11 11:58N 60°05' E 006°32'0 0.0
2017-Dec-11 11:28N 60°05' E 006°32'0 0.0
2017-Dec-11 10:58N 60°05' E 006°32'0 0.0
2017-Dec-11 10:28N 60°05' E 006°32'0 0.0
2017-Dec-11 09:58N 60°05' E 006°32'0 0.0
2017-Dec-11 09:28N 60°05' E 006°32'0 0.0
2017-Dec-11 08:58N 60°05' E 006°32'0 0.0
2017-Dec-11 08:28N 60°05' E 006°32'0 0.0
2017-Dec-11 07:58N 60°05' E 006°32'0 0.0
2017-Dec-11 07:28N 60°05' E 006°32'0 0.0
2017-Dec-11 06:58N 60°05' E 006°32'0 0.0
2017-Dec-11 06:28N 60°05' E 006°32'0 0.0
2017-Dec-11 05:58N 60°05' E 006°32'0 0.0
2017-Dec-11 05:28N 60°05' E 006°32'0 0.0
2017-Dec-11 04:58N 60°05' E 006°32'0 0.0
2017-Dec-11 04:28N 60°05' E 006°32'0 0.0
2017-Dec-11 03:58N 60°05' E 006°32'0 0.0
2017-Dec-11 03:28N 60°05' E 006°32'0 0.0
2017-Dec-11 02:58N 60°05' E 006°32'0 0.0
2017-Dec-11 02:28N 60°05' E 006°32'0 0.0
2017-Dec-11 01:58N 60°05' E 006°32'0 0.0
2017-Dec-11 01:28N 60°05' E 006°32'0 0.0
2017-Dec-11 00:58N 60°05' E 006°32'0 0.0
2017-Dec-11 00:28N 60°05' E 006°32'0 0.0
2017-Dec-10 23:58N 60°05' E 006°32'0 0.0
2017-Dec-10 23:28N 60°05' E 006°32'0 0.0
2017-Dec-10 22:58N 60°05' E 006°32'0 0.0
2017-Dec-10 22:28N 60°05' E 006°32'0 0.0
2017-Dec-10 21:58N 60°05' E 006°32'0 0.0
2017-Dec-10 21:28N 60°05' E 006°32'0 0.0
2017-Dec-10 20:58N 60°05' E 006°32'0 0.0
2017-Dec-10 20:28N 60°05' E 006°32'0 0.0
2017-Dec-10 19:58N 60°05' E 006°32'0 0.0
2017-Dec-10 19:28N 60°05' E 006°32'0 0.0
2017-Dec-10 18:58N 60°05' E 006°32'0 0.0
2017-Dec-10 18:28N 60°05' E 006°32'0 0.0
2017-Dec-10 17:58N 60°05' E 006°32'0 0.0
2017-Dec-10 17:28N 60°05' E 006°32'0 0.0
2017-Dec-10 16:58N 60°05' E 006°32'0 0.0
2017-Dec-10 16:28N 60°05' E 006°32'0 0.0
2017-Dec-10 15:58N 60°05' E 006°32'0 0.0
2017-Dec-10 15:28N 60°05' E 006°32'0 0.0
2017-Dec-10 14:58N 60°05' E 006°32'0 0.0
2017-Dec-10 14:28N 60°05' E 006°32'0 0.0
2017-Dec-10 13:58N 60°05' E 006°32'0 0.0
2017-Dec-10 13:28N 60°05' E 006°32'0 0.0
2017-Dec-10 12:58N 60°05' E 006°32'0 0.0
2017-Dec-10 12:28N 60°05' E 006°32'0 0.0
2017-Dec-10 11:58N 60°05' E 006°32'0 0.0
2017-Dec-10 11:28N 60°05' E 006°32'0 0.0
2017-Dec-10 10:58N 60°05' E 006°32'0 0.0
2017-Dec-10 10:28N 60°05' E 006°32'0 0.0
2017-Dec-10 09:58N 60°05' E 006°32'0 0.0
2017-Dec-10 09:28N 60°05' E 006°32'0 0.0
2017-Dec-10 08:58N 60°05' E 006°32'0 0.0
2017-Dec-10 08:28N 60°05' E 006°32'0 0.0
2017-Dec-10 07:58N 60°05' E 006°32'0 0.0
2017-Dec-10 07:28N 60°05' E 006°32'0 0.0
2017-Dec-10 06:58N 60°05' E 006°32'0 0.0
2017-Dec-10 06:28N 60°05' E 006°32'0 0.0
2017-Dec-10 05:58N 60°05' E 006°32'0 0.0
2017-Dec-10 05:28N 60°05' E 006°32'0 0.0
2017-Dec-10 04:58N 60°05' E 006°32'0 0.0
2017-Dec-10 04:28N 60°05' E 006°32'0 0.0
2017-Dec-10 03:58N 60°05' E 006°32'0 0.0
2017-Dec-10 03:28N 60°05' E 006°32'0 0.0
2017-Dec-10 02:58N 60°05' E 006°32'0 0.0
2017-Dec-10 02:28N 60°05' E 006°32'0 0.0
2017-Dec-10 01:58N 60°05' E 006°32'0 0.0
2017-Dec-10 01:28N 60°05' E 006°32'0 0.0
2017-Dec-10 00:58N 60°05' E 006°32'0 0.0
2017-Dec-10 00:28N 60°05' E 006°32'0 0.0
2017-Dec-09 23:58N 60°05' E 006°32'0 0.0
2017-Dec-09 23:28N 60°05' E 006°32'0 0.0
2017-Dec-09 22:58N 60°05' E 006°32'0 0.0
2017-Dec-09 22:28N 60°05' E 006°32'0 0.0
2017-Dec-09 21:58N 60°05' E 006°32'0 0.0
2017-Dec-09 21:28N 60°05' E 006°32'0 0.0
2017-Dec-09 20:58N 60°05' E 006°32'0 0.0
2017-Dec-09 20:28N 60°05' E 006°32'0 0.0
2017-Dec-09 19:58N 60°05' E 006°32'0 0.0
2017-Dec-09 19:28N 60°05' E 006°32'0 0.0
2017-Dec-09 18:58N 60°05' E 006°32'0 0.0
2017-Dec-09 18:28N 60°05' E 006°32'0 0.0
2017-Dec-09 17:58N 60°05' E 006°32'0 0.0
2017-Dec-09 17:28N 60°05' E 006°32'0 0.0
2017-Dec-09 16:58N 60°05' E 006°32'0 0.0
2017-Dec-09 16:28N 60°05' E 006°32'0 0.0
2017-Dec-09 15:58N 60°05' E 006°32'0 0.0
2017-Dec-09 15:28N 60°05' E 006°32'0 0.0
2017-Dec-09 14:58N 60°05' E 006°32'0 0.0
2017-Dec-09 14:28N 60°05' E 006°32'0 0.0
2017-Dec-09 13:58N 60°05' E 006°32'0 0.0
2017-Dec-09 13:28N 60°05' E 006°32'0 0.0
2017-Dec-09 12:58N 60°05' E 006°32'0 0.0
2017-Dec-09 12:28N 60°05' E 006°32'0 0.0
2017-Dec-09 11:58N 60°05' E 006°32'0 0.0
2017-Dec-09 11:28N 60°05' E 006°32'0 0.0
2017-Dec-09 10:58N 60°05' E 006°32'0 0.0
2017-Dec-09 10:28N 60°05' E 006°32'0 0.0
2017-Dec-09 09:58N 60°05' E 006°32'0 0.0
2017-Dec-09 09:28N 60°05' E 006°32'0 0.0
2017-Dec-09 08:58N 60°05' E 006°32'0 0.0
2017-Dec-09 08:28N 60°05' E 006°32'0 0.0
2017-Dec-09 07:58N 60°05' E 006°32'0 0.0
2017-Dec-09 07:28N 60°05' E 006°32'0 0.0
2017-Dec-09 06:58N 60°05' E 006°32'0 0.0
2017-Dec-09 06:28N 60°05' E 006°32'0 0.0
2017-Dec-09 05:58N 60°05' E 006°32'0 0.0
2017-Dec-09 05:28N 60°05' E 006°32'0 0.0
2017-Dec-09 04:58N 60°05' E 006°32'0 0.0
2017-Dec-09 04:28N 60°05' E 006°32'0 0.0
2017-Dec-09 03:58N 60°05' E 006°32'0 0.0
2017-Dec-09 03:28N 60°05' E 006°32'0 0.0
2017-Dec-09 02:58N 60°05' E 006°32'0 0.0
2017-Dec-09 02:28N 60°05' E 006°32'0 0.0
2017-Dec-09 01:58N 60°05' E 006°32'0 0.0
2017-Dec-09 01:28N 60°05' E 006°32'0 0.0
2017-Dec-09 00:58N 60°05' E 006°32'0 0.0
2017-Dec-09 00:28N 60°05' E 006°32'0 0.0
2017-Dec-08 23:58N 60°05' E 006°32'0 0.0
2017-Dec-08 23:28N 60°05' E 006°32'0 0.0
2017-Dec-08 22:58N 60°05' E 006°32'0 0.0
2017-Dec-08 22:28N 60°05' E 006°32'0 0.0
2017-Dec-08 21:58N 60°05' E 006°32'0 0.0
2017-Dec-08 21:28N 60°05' E 006°32'0 0.0
2017-Dec-08 20:58N 60°05' E 006°32'0 0.0
2017-Dec-08 20:28N 60°05' E 006°32'0 0.0
2017-Dec-08 19:58N 60°05' E 006°32'0 0.0
2017-Dec-08 19:28N 60°05' E 006°32'0 0.0
2017-Dec-08 18:58N 60°05' E 006°32'0 0.0
2017-Dec-08 18:28N 60°05' E 006°32'0 0.0
2017-Dec-08 17:58N 60°05' E 006°32'0 0.0
2017-Dec-08 17:28N 60°05' E 006°32'0 0.0
2017-Dec-08 16:58N 60°05' E 006°32'0 0.0
2017-Dec-08 16:28N 60°05' E 006°32'0 0.0
2017-Dec-08 15:58N 60°05' E 006°32'0 0.0
2017-Dec-08 15:28N 60°05' E 006°32'0 0.0
2017-Dec-08 14:58N 60°05' E 006°32'0 0.0
2017-Dec-08 14:28N 60°05' E 006°32'0 0.0
2017-Dec-08 13:58N 60°05' E 006°32'0 0.1
2017-Dec-08 13:28N 60°05' E 006°32'0 0.0
2017-Dec-08 12:58N 60°05' E 006°32'0 0.2
2017-Dec-08 12:28N 60°05' E 006°32'0 0.0
2017-Dec-08 11:58N 60°05' E 006°32'0 0.0
2017-Dec-08 11:28N 60°05' E 006°32'0 0.0
2017-Dec-08 10:58N 60°05' E 006°32'0 0.0
2017-Dec-08 10:28N 60°05' E 006°32'0 0.0
2017-Dec-08 09:58N 60°05' E 006°32'0 0.0
2017-Dec-08 09:28N 60°05' E 006°32'0 0.0
2017-Dec-08 08:58N 60°05' E 006°32'0 0.0
2017-Dec-08 08:28N 60°05' E 006°32'0 0.0
2017-Dec-08 07:58N 60°05' E 006°32'0 0.0
2017-Dec-08 07:28N 60°05' E 006°32'0 0.0
2017-Dec-08 06:58N 60°05' E 006°32'0 0.0
2017-Dec-08 06:28N 60°05' E 006°32'0 0.0
2017-Dec-08 05:58N 60°05' E 006°32'0 0.0
2017-Dec-08 05:28N 60°05' E 006°32'0 0.0
2017-Dec-08 04:58N 60°05' E 006°32'0 0.0
2017-Dec-08 04:28N 60°05' E 006°32'0 0.0
2017-Dec-08 03:58N 60°05' E 006°32'0 0.0
2017-Dec-08 03:28N 60°05' E 006°32'0 0.0
2017-Dec-08 02:58N 60°05' E 006°32'0 0.0
2017-Dec-08 02:28N 60°05' E 006°32'0 0.0
2017-Dec-08 01:58N 60°05' E 006°32'0 0.0
2017-Dec-08 01:28N 60°05' E 006°32'0 0.0
2017-Dec-08 00:58N 60°05' E 006°32'0 0.0
2017-Dec-08 00:28N 60°05' E 006°32'0 0.0
2017-Dec-07 23:58N 60°05' E 006°32'0 0.0
2017-Dec-07 23:28N 60°05' E 006°32'0 0.1
2017-Dec-07 22:58N 60°05' E 006°32'0 0.7
2017-Dec-07 22:28N 60°05' E 006°32'0 0.1
2017-Dec-07 21:58N 60°05' E 006°32'0 0.1
2017-Dec-07 21:28N 60°05' E 006°32'0 0.1
2017-Dec-07 20:58N 60°05' E 006°32'0 0.0
2017-Dec-07 20:28N 60°05' E 006°32'0 0.1
2017-Dec-07 19:58N 60°05' E 006°32'0 0.0
2017-Dec-07 19:28N 60°05' E 006°32'0 0.0
2017-Dec-07 18:58N 60°05' E 006°32'0 0.1
2017-Dec-07 18:28N 60°05' E 006°32'0 0.1
2017-Dec-07 17:58N 60°05' E 006°32'0 0.1
2017-Dec-07 17:28N 60°05' E 006°32'0 0.1
2017-Dec-07 16:58N 60°05' E 006°32'0 0.1
2017-Dec-07 16:28N 60°05' E 006°32'0 0.1
2017-Dec-07 15:58N 60°05' E 006°32'0 0.0
2017-Dec-07 15:28N 60°05' E 006°32'0 0.1
2017-Dec-07 14:58N 60°05' E 006°32'0 0.1
2017-Dec-07 14:28N 60°05' E 006°32'0 0.1
2017-Dec-07 13:58N 60°05' E 006°32'0 0.0
2017-Dec-07 13:28N 60°05' E 006°32'0 0.1
2017-Dec-07 12:58N 60°05' E 006°32'0 0.1
2017-Dec-07 12:28N 60°05' E 006°32'0 0.1
2017-Dec-07 11:58N 60°05' E 006°32'1 1.6
2017-Dec-07 11:30N 60°06' E 006°33'  
Track history (hours):
 
Tides and Currents Weather Stations Pressure Air Temp Water Temp Dewpoint Dewpoint Depression Visibility Wind Speed Wind Dir Waves Ship Positions

Cfl Promise

Last reported at 2017-Dec-17 11:08 UTC. Time now 2017-Dec-18 11:20 UTC.
Position N 55°40' E 016°20'.

Length 119 m; draft 6.2 m.

Type: Cargo ship. MMSI: 245959000.

Date/timePositionNaut miles runAvg speedWind from/ knotsBaromVisibWave heightAir tempDewpointWater temp
2017-Dec-17 11:08N 55°40' E 016°20'110.7
2017-Dec-17 11:00N 55°40' E 016°17'510.5
2017-Dec-17 10:30N 55°38' E 016°09'610.4
2017-Dec-17 09:58N 55°37' E 015°59'510.3
2017-Dec-17 09:30N 55°36' E 015°51'510.3
2017-Dec-17 09:00N 55°34' E 015°42'610.4
2017-Dec-17 08:25N 55°33' E 015°32'510.3
2017-Dec-17 07:55N 55°31' E 015°23'410.2
2017-Dec-17 07:30N 55°29' E 015°16'510.2
2017-Dec-17 07:01N 55°28' E 015°08'510.2
2017-Dec-17 06:30N 55°26' E 014°59'510.1
2017-Dec-17 06:01N 55°24' E 014°51'510.1
2017-Dec-17 05:31N 55°23' E 014°42'5 9.6
2017-Dec-17 05:01N 55°20' E 014°35'5 9.7
2017-Dec-17 04:31N 55°17' E 014°29'5 9.6
2017-Dec-17 04:00N 55°13' E 014°24'5 9.6
2017-Dec-17 03:29N 55°11' E 014°16'610.3
2017-Dec-17 02:58N 55°09' E 014°07'510.6
2017-Dec-17 02:29N 55°09' E 013°58'2010.7
2017-Dec-17 00:36N 55°12' E 013°24'211.0
2017-Dec-17 00:24N 55°13' E 013°20'410.7
2017-Dec-17 00:00N 55°13' E 013°13'510.6
2017-Dec-16 23:30N 55°14' E 013°03'510.5
2017-Dec-16 23:00N 55°15' E 012°54'510.7
2017-Dec-16 22:30N 55°16' E 012°45'510.1
2017-Dec-16 22:00N 55°19' E 012°38'510.1
2017-Dec-16 21:30N 55°24' E 012°39'510.1
2017-Dec-16 21:00N 55°29' E 012°41'5 9.5
2017-Dec-16 20:30N 55°34' E 012°42'4 8.9
2017-Dec-16 20:00N 55°38' E 012°42'5 9.3
2017-Dec-16 19:30N 55°43' E 012°41'5 9.6
2017-Dec-16 19:00N 55°47' E 012°42'5 9.5
2017-Dec-16 18:30N 55°52' E 012°40'5 9.5
2017-Dec-16 18:00N 55°57' E 012°38'5 9.6
2017-Dec-16 17:30N 56°01' E 012°38'4 8.0
2017-Dec-16 17:00N 56°05' E 012°35'4 8.9
2017-Dec-16 16:30N 56°08' E 012°29'510.5
2017-Dec-16 16:00N 56°11' E 012°21'510.1
2017-Dec-16 15:30N 56°14' E 012°13'5210.1
2017-Dec-16 10:23N 57°02' E 011°41'410.2
2017-Dec-16 10:00N 57°06' E 011°38'510.2
2017-Dec-16 09:30N 57°11' E 011°35'510.3
2017-Dec-16 09:00N 57°16' E 011°32'510.4
2017-Dec-16 08:30N 57°21' E 011°29'510.3
2017-Dec-16 08:00N 57°26' E 011°26'5 9.9
2017-Dec-16 07:30N 57°29' E 011°20'510.3
2017-Dec-16 07:00N 57°33' E 011°13'510.3
2017-Dec-16 06:30N 57°36' E 011°05'510.3
2017-Dec-16 06:00N 57°39' E 010°57'510.3
2017-Dec-16 05:30N 57°41' E 010°48'510.2
2017-Dec-16 05:00N 57°42' E 010°39'1 1.7
2017-Dec-16 04:22N 57°42' E 010°37'0 0.0
2017-Dec-16 03:58N 57°42' E 010°37'0 0.0
2017-Dec-16 03:28N 57°42' E 010°37'0 0.0
2017-Dec-16 02:58N 57°42' E 010°37'0 0.0
2017-Dec-16 02:28N 57°42' E 010°37'0 0.0
2017-Dec-16 01:58N 57°42' E 010°37'0 0.0
2017-Dec-16 01:28N 57°42' E 010°37'0 0.1
2017-Dec-16 00:58N 57°42' E 010°37'0 0.1
2017-Dec-16 00:28N 57°42' E 010°37'0 0.1
2017-Dec-15 23:58N 57°42' E 010°37'0 0.1
2017-Dec-15 23:28N 57°42' E 010°37'0 0.0
2017-Dec-15 22:58N 57°42' E 010°37'1 2.6
2017-Dec-15 22:30N 57°43' E 010°39'4 8.6
2017-Dec-15 22:00N 57°46' E 010°45'510.0
2017-Dec-15 21:30N 57°47' E 010°36'611.3
2017-Dec-15 21:00N 57°47' E 010°25'9210.3
2017-Dec-15 12:09N 57°42' E 007°34'1 9.4
2017-Dec-15 12:00N 57°42' E 007°31'510.2
2017-Dec-15 11:30N 57°42' E 007°22'510.6
2017-Dec-15 10:59N 57°42' E 007°12'510.4
2017-Dec-15 10:30N 57°43' E 007°02'510.0
2017-Dec-15 10:00N 57°43' E 006°53'5 9.6
2017-Dec-15 09:30N 57°44' E 006°44'5 9.3
2017-Dec-15 09:00N 57°44' E 006°35'5 9.3
2017-Dec-15 08:30N 57°48' E 006°29'5 9.2
2017-Dec-15 08:00N 57°50' E 006°22'5 9.6
2017-Dec-15 07:30N 57°53' E 006°14'510.1
2017-Dec-15 07:00N 57°56' E 006°07'510.2
2017-Dec-15 06:29N 57°59' E 005°59'2310.4
2017-Dec-15 04:14N 58°14' E 005°26'17 9.7
2017-Dec-15 02:30N 58°28' E 005°08'14 9.4
2017-Dec-15 01:00N 58°42' E 004°58'5 9.8
2017-Dec-15 00:30N 58°46' E 004°55'87 9.1
2017-Dec-14 14:55N 60°13' E 004°29'4 8.9
2017-Dec-14 14:30N 60°16' E 004°29'4 8.9
2017-Dec-14 14:00N 60°21' E 004°30'4 8.3
2017-Dec-14 13:30N 60°25' E 004°32'4 8.4
2017-Dec-14 13:00N 60°29' E 004°32'4 8.5
2017-Dec-14 12:30N 60°33' E 004°33'4 8.4
2017-Dec-14 12:00N 60°37' E 004°34'4 8.5
2017-Dec-14 11:30N 60°41' E 004°36'4 8.1
2017-Dec-14 10:59N 60°45' E 004°41'3 6.0
2017-Dec-14 10:30N 60°47' E 004°45'4 8.5
2017-Dec-14 10:00N 60°51' E 004°49'611.3
2017-Dec-14 09:30N 60°50' E 005°00'2 3.9
2017-Dec-14 08:58N 60°51' E 005°04'0 0.0
2017-Dec-14 08:28N 60°51' E 005°04'0 0.0
2017-Dec-14 07:58N 60°51' E 005°04'0 0.0
2017-Dec-14 07:28N 60°51' E 005°04'0 0.0
2017-Dec-14 06:58N 60°51' E 005°04'0 0.0
2017-Dec-14 06:28N 60°51' E 005°04'0 0.0
2017-Dec-14 05:58N 60°51' E 005°04'0 0.0
2017-Dec-14 05:28N 60°51' E 005°04'0 0.0
2017-Dec-14 04:58N 60°51' E 005°04'0 0.0
2017-Dec-14 04:28N 60°51' E 005°04'0 0.0
2017-Dec-14 03:58N 60°51' E 005°04'0 0.0
2017-Dec-14 03:28N 60°51' E 005°04'0 0.0
2017-Dec-14 02:58N 60°51' E 005°04'0 0.0
2017-Dec-14 02:28N 60°51' E 005°04'0 0.0
2017-Dec-14 01:58N 60°51' E 005°04'0 0.0
2017-Dec-14 01:28N 60°51' E 005°04'0 0.0
2017-Dec-14 00:58N 60°51' E 005°04'0 0.0
2017-Dec-14 00:28N 60°51' E 005°04'0 0.0
2017-Dec-13 23:58N 60°51' E 005°04'0 0.0
2017-Dec-13 23:28N 60°51' E 005°04'0 0.0
2017-Dec-13 22:58N 60°51' E 005°04'0 0.0
2017-Dec-13 22:28N 60°51' E 005°04'0 0.0
2017-Dec-13 21:58N 60°51' E 005°04'0 0.0
2017-Dec-13 21:28N 60°51' E 005°04'0 0.0
2017-Dec-13 20:58N 60°51' E 005°04'0 0.0
2017-Dec-13 20:28N 60°51' E 005°04'0 0.0
2017-Dec-13 19:58N 60°51' E 005°04'0 0.0
2017-Dec-13 19:28N 60°51' E 005°04'0 0.0
2017-Dec-13 18:58N 60°51' E 005°04'0 0.0
2017-Dec-13 18:28N 60°51' E 005°04'0 0.0
2017-Dec-13 17:58N 60°51' E 005°04'0 0.0
2017-Dec-13 17:28N 60°51' E 005°04'0 0.0
2017-Dec-13 16:58N 60°51' E 005°04'0 0.0
2017-Dec-13 16:28N 60°51' E 005°04'0 0.0
2017-Dec-13 15:58N 60°51' E 005°04'0 0.0
2017-Dec-13 15:28N 60°51' E 005°04'0 0.0
2017-Dec-13 14:58N 60°51' E 005°04'0 0.1
2017-Dec-13 14:28N 60°51' E 005°04'0 0.0
2017-Dec-13 13:58N 60°51' E 005°04'0 0.0
2017-Dec-13 13:28N 60°51' E 005°04'0 0.0
2017-Dec-13 12:58N 60°51' E 005°04'0 0.0
2017-Dec-13 12:28N 60°51' E 005°04'0 0.0
2017-Dec-13 11:58N 60°51' E 005°04'0 0.0
2017-Dec-13 11:28N 60°51' E 005°04'0 0.3
2017-Dec-13 11:00N 60°51' E 005°04'4 7.8
2017-Dec-13 10:30N 60°50' E 004°56'510.5
2017-Dec-13 10:00N 60°50' E 004°45'611.8
2017-Dec-13 09:30N 60°44' E 004°48'612.8
2017-Dec-13 09:00N 60°38' E 004°52'713.1
2017-Dec-13 08:30N 60°32' E 004°57'612.8
2017-Dec-13 08:00N 60°26' E 005°02'611.4
2017-Dec-13 07:30N 60°22' E 005°10'510.8
2017-Dec-13 07:00N 60°17' E 005°11'611.1
2017-Dec-13 06:30N 60°11' E 005°12'5 9.5
2017-Dec-13 06:00N 60°08' E 005°18'612.2
2017-Dec-13 05:30N 60°02' E 005°20'612.1
2017-Dec-13 05:00N 59°57' E 005°27'612.3
2017-Dec-13 04:30N 59°51' E 005°33'3 6.1
2017-Dec-13 04:00N 59°51' E 005°39'612.3
2017-Dec-13 03:30N 59°56' E 005°46'612.3
2017-Dec-13 03:00N 60°00' E 005°54'612.1
2017-Dec-13 02:30N 60°05' E 006°02'611.2
2017-Dec-13 01:59N 60°11' E 006°04'611.7
2017-Dec-13 01:30N 60°15' E 006°11'612.1
2017-Dec-13 01:00N 60°21' E 006°17'612.2
2017-Dec-13 00:30N 60°24' E 006°27'611.3
2017-Dec-13 00:00N 60°26' E 006°38'510.1
2017-Dec-12 23:30N 60°21' E 006°39'611.6
2017-Dec-12 23:00N 60°15' E 006°36'611.6
2017-Dec-12 22:31N 60°10' E 006°34'5 9.7
2017-Dec-12 22:00N 60°05' E 006°32'0 0.3
2017-Dec-12 21:29N 60°05' E 006°32'0 0.0
2017-Dec-12 20:59N 60°05' E 006°32'0 0.0
2017-Dec-12 20:29N 60°05' E 006°32'0 0.0
2017-Dec-12 19:59N 60°05' E 006°32'0 0.0
2017-Dec-12 19:29N 60°05' E 006°32'0 0.0
2017-Dec-12 18:59N 60°05' E 006°32'0 0.0
2017-Dec-12 18:29N 60°05' E 006°32'0 0.0
2017-Dec-12 17:59N 60°05' E 006°32'0 0.0
2017-Dec-12 17:29N 60°05' E 006°32'0 0.0
2017-Dec-12 16:59N 60°05' E 006°32'0 0.0
2017-Dec-12 16:29N 60°05' E 006°32'0 0.0
2017-Dec-12 15:59N 60°05' E 006°32'0 0.1
2017-Dec-12 15:29N 60°05' E 006°32'0 0.1
2017-Dec-12 14:59N 60°05' E 006°32'0 0.0
2017-Dec-12 14:29N 60°05' E 006°32'0 0.0
2017-Dec-12 13:58N 60°05' E 006°32'0 0.0
2017-Dec-12 13:28N 60°05' E 006°32'0 0.0
2017-Dec-12 12:58N 60°05' E 006°32'0 0.0
2017-Dec-12 12:28N 60°05' E 006°32'0 0.0
2017-Dec-12 11:58N 60°05' E 006°32'0 0.0
2017-Dec-12 11:28N 60°05' E 006°32'0 0.0
2017-Dec-12 10:58N 60°05' E 006°32'0 0.0
2017-Dec-12 10:28N 60°05' E 006°32'0 0.0
2017-Dec-12 09:58N 60°05' E 006°32'0 0.0
2017-Dec-12 09:28N 60°05' E 006°32'0 0.0
2017-Dec-12 08:58N 60°05' E 006°32'0 0.0
2017-Dec-12 08:28N 60°05' E 006°32'0 0.0
2017-Dec-12 07:58N 60°05' E 006°32'0 0.0
2017-Dec-12 07:28N 60°05' E 006°32'0 0.0
2017-Dec-12 06:58N 60°05' E 006°32'0 0.0
2017-Dec-12 06:28N 60°05' E 006°32'0 0.0
2017-Dec-12 05:58N 60°05' E 006°32'0 0.0
2017-Dec-12 05:28N 60°05' E 006°32'0 0.0
2017-Dec-12 04:58N 60°05' E 006°32'0 0.0
2017-Dec-12 04:28N 60°05' E 006°32'0 0.0
2017-Dec-12 03:58N 60°05' E 006°32'0 0.0
2017-Dec-12 03:28N 60°05' E 006°32'0 0.0
2017-Dec-12 02:58N 60°05' E 006°32'0 0.0
2017-Dec-12 02:28N 60°05' E 006°32'0 0.0
2017-Dec-12 01:58N 60°05' E 006°32'0 0.0
2017-Dec-12 01:28N 60°05' E 006°32'0 0.0
2017-Dec-12 00:58N 60°05' E 006°32'0 0.0
2017-Dec-12 00:28N 60°05' E 006°32'0 0.0
2017-Dec-11 23:58N 60°05' E 006°32'0 0.0
2017-Dec-11 23:28N 60°05' E 006°32'0 0.0
2017-Dec-11 22:58N 60°05' E 006°32'0 0.0
2017-Dec-11 22:28N 60°05' E 006°32'0 0.0
2017-Dec-11 21:58N 60°05' E 006°32'0 0.0
2017-Dec-11 21:28N 60°05' E 006°32'0 0.0
2017-Dec-11 20:58N 60°05' E 006°32'0 0.0
2017-Dec-11 20:28N 60°05' E 006°32'0 0.0
2017-Dec-11 19:58N 60°05' E 006°32'0 0.0
2017-Dec-11 19:28N 60°05' E 006°32'0 0.0
2017-Dec-11 18:58N 60°05' E 006°32'0 0.0
2017-Dec-11 18:28N 60°05' E 006°32'0 0.0
2017-Dec-11 17:58N 60°05' E 006°32'0 0.0
2017-Dec-11 17:28N 60°05' E 006°32'0 0.0
2017-Dec-11 16:58N 60°05' E 006°32'0 0.0
2017-Dec-11 16:28N 60°05' E 006°32'0 0.0
2017-Dec-11 15:58N 60°05' E 006°32'0 0.0
2017-Dec-11 15:28N 60°05' E 006°32'0 0.2
2017-Dec-11 14:58N 60°05' E 006°32'0 0.0
2017-Dec-11 14:28N 60°05' E 006°32'0 0.0
2017-Dec-11 13:58N 60°05' E 006°32'0 0.0
2017-Dec-11 13:28N 60°05' E 006°32'0 0.0
2017-Dec-11 12:58N 60°05' E 006°32'0 0.0
2017-Dec-11 12:28N 60°05' E 006°32'0 0.0
2017-Dec-11 11:58N 60°05' E 006°32'0 0.0
2017-Dec-11 11:28N 60°05' E 006°32'0 0.0
2017-Dec-11 10:58N 60°05' E 006°32'0 0.0
2017-Dec-11 10:28N 60°05' E 006°32'0 0.0
2017-Dec-11 09:58N 60°05' E 006°32'0 0.0
2017-Dec-11 09:28N 60°05' E 006°32'0 0.0
2017-Dec-11 08:58N 60°05' E 006°32'0 0.0
2017-Dec-11 08:28N 60°05' E 006°32'0 0.0
2017-Dec-11 07:58N 60°05' E 006°32'0 0.0
2017-Dec-11 07:28N 60°05' E 006°32'0 0.0
2017-Dec-11 06:58N 60°05' E 006°32'0 0.0
2017-Dec-11 06:28N 60°05' E 006°32'0 0.0
2017-Dec-11 05:58N 60°05' E 006°32'0 0.0
2017-Dec-11 05:28N 60°05' E 006°32'0 0.0
2017-Dec-11 04:58N 60°05' E 006°32'0 0.0
2017-Dec-11 04:28N 60°05' E 006°32'0 0.0
2017-Dec-11 03:58N 60°05' E 006°32'0 0.0
2017-Dec-11 03:28N 60°05' E 006°32'0 0.0
2017-Dec-11 02:58N 60°05' E 006°32'0 0.0
2017-Dec-11 02:28N 60°05' E 006°32'0 0.0
2017-Dec-11 01:58N 60°05' E 006°32'0 0.0
2017-Dec-11 01:28N 60°05' E 006°32'0 0.0
2017-Dec-11 00:58N 60°05' E 006°32'0 0.0
2017-Dec-11 00:28N 60°05' E 006°32'0 0.0
2017-Dec-10 23:58N 60°05' E 006°32'0 0.0
2017-Dec-10 23:28N 60°05' E 006°32'0 0.0
2017-Dec-10 22:58N 60°05' E 006°32'0 0.0
2017-Dec-10 22:28N 60°05' E 006°32'0 0.0
2017-Dec-10 21:58N 60°05' E 006°32'0 0.0
2017-Dec-10 21:28N 60°05' E 006°32'0 0.0
2017-Dec-10 20:58N 60°05' E 006°32'0 0.0
2017-Dec-10 20:28N 60°05' E 006°32'0 0.0
2017-Dec-10 19:58N 60°05' E 006°32'0 0.0
2017-Dec-10 19:28N 60°05' E 006°32'0 0.0
2017-Dec-10 18:58N 60°05' E 006°32'0 0.0
2017-Dec-10 18:28N 60°05' E 006°32'0 0.0
2017-Dec-10 17:58N 60°05' E 006°32'0 0.0
2017-Dec-10 17:28N 60°05' E 006°32'0 0.0
2017-Dec-10 16:58N 60°05' E 006°32'0 0.0
2017-Dec-10 16:28N 60°05' E 006°32'0 0.0
2017-Dec-10 15:58N 60°05' E 006°32'0 0.0
2017-Dec-10 15:28N 60°05' E 006°32'0 0.0
2017-Dec-10 14:58N 60°05' E 006°32'0 0.0
2017-Dec-10 14:28N 60°05' E 006°32'0 0.0
2017-Dec-10 13:58N 60°05' E 006°32'0 0.0
2017-Dec-10 13:28N 60°05' E 006°32'0 0.0
2017-Dec-10 12:58N 60°05' E 006°32'0 0.0
2017-Dec-10 12:28N 60°05' E 006°32'0 0.0
2017-Dec-10 11:58N 60°05' E 006°32'0 0.0
2017-Dec-10 11:28N 60°05' E 006°32'0 0.0
2017-Dec-10 10:58N 60°05' E 006°32'0 0.0
2017-Dec-10 10:28N 60°05' E 006°32'0 0.0
2017-Dec-10 09:58N 60°05' E 006°32'0 0.0
2017-Dec-10 09:28N 60°05' E 006°32'0 0.0
2017-Dec-10 08:58N 60°05' E 006°32'0 0.0
2017-Dec-10 08:28N 60°05' E 006°32'0 0.0
2017-Dec-10 07:58N 60°05' E 006°32'0 0.0
2017-Dec-10 07:28N 60°05' E 006°32'0 0.0
2017-Dec-10 06:58N 60°05' E 006°32'0 0.0
2017-Dec-10 06:28N 60°05' E 006°32'0 0.0
2017-Dec-10 05:58N 60°05' E 006°32'0 0.0
2017-Dec-10 05:28N 60°05' E 006°32'0 0.0
2017-Dec-10 04:58N 60°05' E 006°32'0 0.0
2017-Dec-10 04:28N 60°05' E 006°32'0 0.0
2017-Dec-10 03:58N 60°05' E 006°32'0 0.0
2017-Dec-10 03:28N 60°05' E 006°32'0 0.0
2017-Dec-10 02:58N 60°05' E 006°32'0 0.0
2017-Dec-10 02:28N 60°05' E 006°32'0 0.0
2017-Dec-10 01:58N 60°05' E 006°32'0 0.0
2017-Dec-10 01:28N 60°05' E 006°32'0 0.0
2017-Dec-10 00:58N 60°05' E 006°32'0 0.0
2017-Dec-10 00:28N 60°05' E 006°32'0 0.0
2017-Dec-09 23:58N 60°05' E 006°32'0 0.0
2017-Dec-09 23:28N 60°05' E 006°32'0 0.0
2017-Dec-09 22:58N 60°05' E 006°32'0 0.0
2017-Dec-09 22:28N 60°05' E 006°32'0 0.0
2017-Dec-09 21:58N 60°05' E 006°32'0 0.0
2017-Dec-09 21:28N 60°05' E 006°32'0 0.0
2017-Dec-09 20:58N 60°05' E 006°32'0 0.0
2017-Dec-09 20:28N 60°05' E 006°32'0 0.0
2017-Dec-09 19:58N 60°05' E 006°32'0 0.0
2017-Dec-09 19:28N 60°05' E 006°32'0 0.0
2017-Dec-09 18:58N 60°05' E 006°32'0 0.0
2017-Dec-09 18:28N 60°05' E 006°32'0 0.0
2017-Dec-09 17:58N 60°05' E 006°32'0 0.0
2017-Dec-09 17:28N 60°05' E 006°32'0 0.0
2017-Dec-09 16:58N 60°05' E 006°32'0 0.0
2017-Dec-09 16:28N 60°05' E 006°32'0 0.0
2017-Dec-09 15:58N 60°05' E 006°32'0 0.0
2017-Dec-09 15:28N 60°05' E 006°32'0 0.0
2017-Dec-09 14:58N 60°05' E 006°32'0 0.0
2017-Dec-09 14:28N 60°05' E 006°32'0 0.0
2017-Dec-09 13:58N 60°05' E 006°32'0 0.0
2017-Dec-09 13:28N 60°05' E 006°32'0 0.0
2017-Dec-09 12:58N 60°05' E 006°32'0 0.0
2017-Dec-09 12:28N 60°05' E 006°32'0 0.0
2017-Dec-09 11:58N 60°05' E 006°32'0 0.0
2017-Dec-09 11:28N 60°05' E 006°32'0 0.0
2017-Dec-09 10:58N 60°05' E 006°32'0 0.0
2017-Dec-09 10:28N 60°05' E 006°32'0 0.0
2017-Dec-09 09:58N 60°05' E 006°32'0 0.0
2017-Dec-09 09:28N 60°05' E 006°32'0 0.0
2017-Dec-09 08:58N 60°05' E 006°32'0 0.0
2017-Dec-09 08:28N 60°05' E 006°32'0 0.0
2017-Dec-09 07:58N 60°05' E 006°32'0 0.0
2017-Dec-09 07:28N 60°05' E 006°32'0 0.0
2017-Dec-09 06:58N 60°05' E 006°32'0 0.0
2017-Dec-09 06:28N 60°05' E 006°32'0 0.0
2017-Dec-09 05:58N 60°05' E 006°32'0 0.0
2017-Dec-09 05:28N 60°05' E 006°32'0 0.0
2017-Dec-09 04:58N 60°05' E 006°32'0 0.0
2017-Dec-09 04:28N 60°05' E 006°32'0 0.0
2017-Dec-09 03:58N 60°05' E 006°32'0 0.0
2017-Dec-09 03:28N 60°05' E 006°32'0 0.0
2017-Dec-09 02:58N 60°05' E 006°32'0 0.0
2017-Dec-09 02:28N 60°05' E 006°32'0 0.0
2017-Dec-09 01:58N 60°05' E 006°32'0 0.0
2017-Dec-09 01:28N 60°05' E 006°32'0 0.0
2017-Dec-09 00:58N 60°05' E 006°32'0 0.0
2017-Dec-09 00:28N 60°05' E 006°32'0 0.0
2017-Dec-08 23:58N 60°05' E 006°32'0 0.0
2017-Dec-08 23:28N 60°05' E 006°32'0 0.0
2017-Dec-08 22:58N 60°05' E 006°32'0 0.0
2017-Dec-08 22:28N 60°05' E 006°32'0 0.0
2017-Dec-08 21:58N 60°05' E 006°32'0 0.0
2017-Dec-08 21:28N 60°05' E 006°32'0 0.0
2017-Dec-08 20:58N 60°05' E 006°32'0 0.0
2017-Dec-08 20:28N 60°05' E 006°32'0 0.0
2017-Dec-08 19:58N 60°05' E 006°32'0 0.0
2017-Dec-08 19:28N 60°05' E 006°32'0 0.0
2017-Dec-08 18:58N 60°05' E 006°32'0 0.0
2017-Dec-08 18:28N 60°05' E 006°32'0 0.0
2017-Dec-08 17:58N 60°05' E 006°32'0 0.0
2017-Dec-08 17:28N 60°05' E 006°32'0 0.0
2017-Dec-08 16:58N 60°05' E 006°32'0 0.0
2017-Dec-08 16:28N 60°05' E 006°32'0 0.0
2017-Dec-08 15:58N 60°05' E 006°32'0 0.0
2017-Dec-08 15:28N 60°05' E 006°32'0 0.0
2017-Dec-08 14:58N 60°05' E 006°32'0 0.0
2017-Dec-08 14:28N 60°05' E 006°32'0 0.0
2017-Dec-08 13:58N 60°05' E 006°32'0 0.1
2017-Dec-08 13:28N 60°05' E 006°32'0 0.0
2017-Dec-08 12:58N 60°05' E 006°32'0 0.2
2017-Dec-08 12:28N 60°05' E 006°32'0 0.0
2017-Dec-08 11:58N 60°05' E 006°32'0 0.0
2017-Dec-08 11:28N 60°05' E 006°32'0 0.0
2017-Dec-08 10:58N 60°05' E 006°32'0 0.0
2017-Dec-08 10:28N 60°05' E 006°32'0 0.0
2017-Dec-08 09:58N 60°05' E 006°32'0 0.0
2017-Dec-08 09:28N 60°05' E 006°32'0 0.0
2017-Dec-08 08:58N 60°05' E 006°32'0 0.0
2017-Dec-08 08:28N 60°05' E 006°32'0 0.0
2017-Dec-08 07:58N 60°05' E 006°32'0 0.0
2017-Dec-08 07:28N 60°05' E 006°32'0 0.0
2017-Dec-08 06:58N 60°05' E 006°32'0 0.0
2017-Dec-08 06:28N 60°05' E 006°32'0 0.0
2017-Dec-08 05:58N 60°05' E 006°32'0 0.0
2017-Dec-08 05:28N 60°05' E 006°32'0 0.0
2017-Dec-08 04:58N 60°05' E 006°32'0 0.0
2017-Dec-08 04:28N 60°05' E 006°32'0 0.0
2017-Dec-08 03:58N 60°05' E 006°32'0 0.0
2017-Dec-08 03:28N 60°05' E 006°32'0 0.0
2017-Dec-08 02:58N 60°05' E 006°32'0 0.0
2017-Dec-08 02:28N 60°05' E 006°32'0 0.0
2017-Dec-08 01:58N 60°05' E 006°32'0 0.0
2017-Dec-08 01:28N 60°05' E 006°32'0 0.0
2017-Dec-08 00:58N 60°05' E 006°32'0 0.0
2017-Dec-08 00:28N 60°05' E 006°32'0 0.0
2017-Dec-07 23:58N 60°05' E 006°32'0 0.0
2017-Dec-07 23:28N 60°05' E 006°32'0 0.1
2017-Dec-07 22:58N 60°05' E 006°32'0 0.7
2017-Dec-07 22:28N 60°05' E 006°32'0 0.1
2017-Dec-07 21:58N 60°05' E 006°32'0 0.1
2017-Dec-07 21:28N 60°05' E 006°32'0 0.1
2017-Dec-07 20:58N 60°05' E 006°32'0 0.0
2017-Dec-07 20:28N 60°05' E 006°32'0 0.1
2017-Dec-07 19:58N 60°05' E 006°32'0 0.0
2017-Dec-07 19:28N 60°05' E 006°32'0 0.0
2017-Dec-07 18:58N 60°05' E 006°32'0 0.1
2017-Dec-07 18:28N 60°05' E 006°32'0 0.1
2017-Dec-07 17:58N 60°05' E 006°32'0 0.1
2017-Dec-07 17:28N 60°05' E 006°32'0 0.1
2017-Dec-07 16:58N 60°05' E 006°32'0 0.1
2017-Dec-07 16:28N 60°05' E 006°32'0 0.1
2017-Dec-07 15:58N 60°05' E 006°32'0 0.0
2017-Dec-07 15:28N 60°05' E 006°32'0 0.1
2017-Dec-07 14:58N 60°05' E 006°32'0 0.1
2017-Dec-07 14:28N 60°05' E 006°32'0 0.1
2017-Dec-07 13:58N 60°05' E 006°32'0 0.0
2017-Dec-07 13:28N 60°05' E 006°32'0 0.1
2017-Dec-07 12:58N 60°05' E 006°32'0 0.1
2017-Dec-07 12:28N 60°05' E 006°32'0 0.1
2017-Dec-07 11:58N 60°05' E 006°32'1 1.6
2017-Dec-07 11:30N 60°06' E 006°33'  

Dump ship's entire track history